Date,TemperatureHighF,TemperatureAvgF,TemperatureLowF,DewpointHighF,DewpointAvgF,DewpointLowF,HumidityHigh,HumidityAvg,HumidityLow,PressureMaxIn,PressureMinIn,WindSpeedMaxMPH,WindSpeedAvgMPH,GustSpeedMaxMPH,PrecipitationSumIn
2013-3-1,23.0,20.9,18.7,22.0,19.7,17.0,95,95,94,29.94,29.86,8,1,11,0.00
2013-3-2,22.1,18.8,12.1,21.0,17.4,10.0,95,94,92,29.91,29.84,5,1,10,0.00
2013-3-3,15.6,12.0,8.9,14.0,10.2,7.0,93,92,91,30.04,29.90,8,2,11,0.00
2013-3-4,32.9,21.2,10.3,30.0,18.4,8.0,95,89,69,30.23,30.04,6,2,10,0.08
2013-3-5,36.9,33.8,21.8,36.0,30.7,21.0,98,89,69,30.15,29.51,7,2,13,1.03
2013-3-6,21.1,16.2,13.6,20.0,14.6,12.0,95,93,92,30.16,29.46,0,0,0,0.00
2013-3-7,22.6,18.1,16.1,22.0,16.8,15.0,96,94,93,30.34,30.17,0,0,0,0.00
2013-3-8,28.5,20.9,15.2,28.0,19.8,14.0,97,95,93,30.43,30.28,0,0,0,0.02
2013-3-9,50.9,39.3,25.8,28.0,22.8,7.0,97,56,23,30.41,30.23,5,1,9,0.12
2013-3-10,47.5,40.4,34.7,31.0,27.3,23.0,71,60,49,30.22,30.09,12,7,19,0.00
2013-3-11,42.8,39.6,36.5,43.0,38.0,29.0,99,94,69,30.08,29.80,16,8,24,0.43
2013-3-12,43.5,32.0,26.8,43.0,31.4,25.0,99,97,94,29.99,29.73,7,1,13,0.36
2013-3-13,27.4,21.6,13.6,26.0,19.1,11.0,96,90,80,30.11,29.96,0,0,0,0.00
2013-3-14,26.9,18.1,9.8,15.0,11.7,8.0,92,77,56,30.34,30.10,8,2,17,0.00
2013-3-15,49.6,38.3,21.0,38.0,27.8,13.0,96,68,36,30.23,29.93,14,6,26,0.01
2013-3-16,59.6,51.0,45.0,44.0,41.0,38.0,83,69,51,29.92,29.68,9,5,21,0.00
2013-3-17,56.1,46.0,33.5,46.0,41.9,33.0,97,86,57,29.89,29.77,8,3,12,0.00
2013-3-18,40.2,33.9,29.9,40.0,33.4,29.0,99,98,97,29.93,29.82,13,3,19,0.42
2013-3-19,41.7,34.0,25.0,41.0,24.6,4.0,98,72,31,30.01,29.81,15,4,24,0.07
2013-3-20,36.1,26.8,18.1,21.0,7.9,3.0,92,47,27,30.06,29.82,14,5,27,0.00
2013-3-21,18.1,12.7,7.4,16.0,7.2,5.0,92,79,65,30.01,29.70,15,7,23,0.00
2013-3-22,36.7,21.8,10.2,26.0,10.3,5.0,91,65,29,30.12,30.00,12,3,24,0.00
2013-3-23,40.1,33.3,28.5,37.0,31.5,27.0,97,93,85,30.06,29.86,7,2,14,0.00
2013-3-24,37.6,31.3,26.5,37.0,30.4,26.0,98,96,90,29.87,29.44,8,3,16,0.75
2013-3-25,27.4,19.4,16.3,27.0,18.1,15.0,97,94,93,29.84,29.45,28,6,28,0.00
2013-3-26,20.2,17.9,16.0,19.0,16.6,14.0,94,94,93,30.19,29.84,19,8,25,0.00
2013-3-27,21.5,18.2,15.4,20.0,16.8,14.0,95,94,93,30.30,30.16,18,8,27,0.00
2013-3-28,29.5,20.7,15.9,27.0,16.4,-99.9,96,90,83,30.36,30.25,17,-17,27,0.15
2013-3-29,38.3,29.6,23.3,30.0,20.9,12.0,97,73,37,30.36,30.24,7,2,13,0.07
2013-3-30,46.4,37.3,29.8,35.0,29.4,24.0,97,74,55,30.23,30.05,5,1,9,0.00
2013-3-31,44.9,40.4,35.7,42.0,39.0,34.0,98,95,84,30.04,29.81,9,3,16,0.53